Time;durP1;ratioP1;P1;durP2;ratioP2;P2;SDS_P1;SDS_P2;PMS_P1;PMS_P2;Temp;Humidity;BMP_temperature;BMP_pressure;BME280_temperature;BME280_humidity;BME280_pressure;Samples;Min_cycle;Max_cycle;Signal;HPM_P1;HPM_P2
2021/06/23 00:00:52;;;;;;;6.78;2.62;;;;;;;41.28;43.73;162089.58;1762487;81;21323;-83
2021/06/23 00:03:25;;;;;;;3.65;2.22;;;;;;;41.20;43.88;162069.44;1762146;81;21224;-84
2021/06/23 00:05:58;;;;;;;3.33;2.10;;;;;;;41.12;43.98;162047.94;1762334;81;21215;-85
2021/06/23 00:08:30;;;;;;;3.27;1.98;;;;;;;41.11;44.04;162045.23;1740544;81;21232;-84
2021/06/23 00:11:03;;;;;;;5.95;2.47;;;;;;;41.13;44.00;162049.25;1735552;81;21170;-83
2021/06/23 00:13:36;;;;;;;4.45;2.30;;;;;;;41.20;43.88;162069.44;1764909;81;21206;-83
2021/06/23 00:16:09;;;;;;;6.85;2.02;;;;;;;41.24;43.76;162078.83;1721091;82;21225;-85
2021/06/23 00:18:42;;;;;;;6.60;2.12;;;;;;;41.23;43.77;162076.14;1733598;81;21706;-85
2021/06/23 00:21:14;;;;;;;5.60;2.35;;;;;;;41.29;43.64;162093.59;1736982;81;21325;-83
2021/06/23 00:23:47;;;;;;;8.83;3.25;;;;;;;41.28;43.57;162090.91;1760788;80;21217;-83
2021/06/23 00:26:20;;;;;;;8.18;3.40;;;;;;;41.24;43.61;162078.83;1705413;83;21195;-83
2021/06/23 00:28:52;;;;;;;4.87;2.42;;;;;;;41.15;43.74;162054.69;1734541;81;21795;-82
2021/06/23 00:31:24;;;;;;;3.65;2.20;;;;;;;41.35;43.43;162108.36;1690663;83;21237;-83
2021/06/23 00:33:58;;;;;;;3.70;2.10;;;;;;;41.41;43.30;162125.81;1721562;82;21376;-83
2021/06/23 00:36:30;;;;;;;4.53;1.87;;;;;;;41.39;43.28;162119.13;1745624;81;21222;-83
2021/06/23 00:39:03;;;;;;;4.03;2.42;;;;;;;41.43;43.24;162131.19;1715997;82;21320;-83
2021/06/23 00:41:36;;;;;;;3.50;2.08;;;;;;;41.49;43.13;162145.97;1744062;81;21221;-83
2021/06/23 00:44:09;;;;;;;3.42;1.92;;;;;;;41.48;43.10;162143.27;1748625;81;21183;-83
2021/06/23 00:46:43;;;;;;;5.08;2.37;;;;;;;41.43;43.12;162131.19;1711563;82;21701;-82
2021/06/23 00:49:15;;;;;;;4.33;2.20;;;;;;;41.40;43.19;162121.81;1726038;81;21830;-83
2021/06/23 00:51:53;;;;;;;6.05;1.92;;;;;;;41.39;43.17;162119.13;1746141;80;21183;-82
2021/06/23 00:54:29;;;;;;;5.60;2.45;;;;;;;41.36;43.19;162111.05;1758239;81;21719;-83
2021/06/23 00:57:06;;;;;;;5.37;2.42;;;;;;;41.32;43.24;162101.66;1751824;81;21303;-82
2021/06/23 00:59:39;;;;;;;3.75;2.15;;;;;;;41.33;43.21;162104.34;1740259;81;21717;-84
2021/06/23 01:02:13;;;;;;;5.85;2.37;;;;;;;41.31;43.21;162098.97;1748886;81;21164;-83
2021/06/23 01:04:45;;;;;;;4.30;2.30;;;;;;;41.26;43.23;162085.53;1770609;81;21300;-84
2021/06/23 01:07:19;;;;;;;4.33;2.37;;;;;;;41.24;43.23;162078.83;1767931;81;21169;-83
2021/06/23 01:09:56;;;;;;;3.60;2.22;;;;;;;41.24;43.20;162078.83;1769085;81;21316;-82
2021/06/23 01:12:46;;;;;;;5.05;2.60;;;;;;;41.23;43.20;162077.50;1760470;81;21326;-83
2021/06/23 01:15:19;;;;;;;3.05;1.98;;;;;;;41.24;43.15;162078.83;1725256;82;21865;-84
2021/06/23 01:17:52;;;;;;;4.62;2.75;;;;;;;41.20;43.16;162068.13;1770486;81;21211;-84
2021/06/23 01:20:24;;;;;;;2.55;1.90;;;;;;;41.18;43.17;162062.75;1742373;81;21297;-83
2021/06/23 01:22:58;;;;;;;5.72;2.20;;;;;;;40.93;43.47;161996.89;1752566;81;21228;-82
2021/06/23 01:25:30;;;;;;;3.05;2.17;;;;;;;40.70;43.92;161932.41;1770140;81;21319;-84
2021/06/23 01:28:04;;;;;;;5.58;2.02;;;;;;;40.60;44.11;161906.97;1762753;81;21353;-83
2021/06/23 01:30:38;;;;;;;6.35;2.12;;;;;;;40.59;44.21;161904.28;1756276;80;21189;-85
2021/06/23 01:33:15;;;;;;;4.08;2.15;;;;;;;40.54;44.24;161890.83;1749993;80;21168;-84
2021/06/23 01:35:48;;;;;;;3.52;1.95;;;;;;;40.55;44.23;161893.52;1751504;82;21190;-83
2021/06/23 01:38:22;;;;;;;4.47;2.65;;;;;;;40.53;44.26;161888.14;1751025;82;21503;-82
2021/06/23 01:40:55;;;;;;;3.12;2.30;;;;;;;40.52;44.26;161885.45;1725494;82;21270;-83
2021/06/23 01:43:28;;;;;;;2.75;1.90;;;;;;;40.49;44.30;161876.06;1744189;81;21193;-84
2021/06/23 01:46:02;;;;;;;4.90;2.33;;;;;;;40.50;44.26;161880.13;1740143;81;21314;-83
2021/06/23 01:48:34;;;;;;;4.33;2.40;;;;;;;40.56;44.15;161894.89;1721900;83;21236;-84
2021/06/23 01:51:06;;;;;;;3.35;2.05;;;;;;;40.58;44.07;161901.59;1733993;81;21164;-84
2021/06/23 01:53:40;;;;;;;2.80;1.80;;;;;;;40.56;44.06;161896.20;1754866;81;21700;-84
2021/06/23 01:56:13;;;;;;;7.40;2.20;;;;;;;40.55;44.01;161893.52;1722697;82;21714;-84
2021/06/23 01:58:46;;;;;;;5.20;2.15;;;;;;;40.59;43.95;161902.91;1736356;82;21247;-85
2021/06/23 02:02:05;;;;;;;5.08;2.20;;;;;;;40.66;43.76;161923.03;1735138;82;21194;-84
2021/06/23 02:04:55;;;;;;;3.50;2.10;;;;;;;40.62;43.81;161910.97;1735370;82;21320;-83
2021/06/23 02:07:50;;;;;;;4.30;2.00;;;;;;;40.63;43.75;161914.97;1684957;83;21210;-83
2021/06/23 02:11:12;;;;;;;3.02;1.87;;;;;;;40.55;43.85;161893.52;1724088;83;21317;-83
2021/06/23 02:14:14;;;;;;;2.15;1.90;;;;;;;40.59;43.77;161904.28;1718323;83;21246;-83
2021/06/23 02:16:56;;;;;;;4.78;2.35;;;;;;;40.61;43.74;161909.66;1757416;80;21318;-83
2021/06/23 02:19:38;;;;;;;3.27;2.22;;;;;;;40.59;43.70;161904.28;1747848;81;21750;-83
2021/06/23 02:22:29;;;;;;;3.92;2.10;;;;;;;40.59;43.65;161904.28;1749062;81;21162;-83
2021/06/23 02:25:10;;;;;;;5.05;2.00;;;;;;;40.49;43.75;161877.44;1736078;82;21757;-83
2021/06/23 02:27:44;;;;;;;3.15;1.70;;;;;;;40.43;43.84;161861.31;1721444;81;21170;-83
2021/06/23 02:30:17;;;;;;;2.87;2.15;;;;;;;40.37;43.81;161843.88;1705560;82;21338;-83
2021/06/23 02:32:51;;;;;;;3.50;2.02;;;;;;;40.35;44.01;161839.86;1733798;82;21218;-87
2021/06/23 02:35:29;;;;;;;4.92;2.62;;;;;;;40.35;44.01;161839.86;1744158;81;21351;-84
2021/06/23 02:38:02;;;;;;;3.27;1.90;;;;;;;40.36;43.88;161841.19;1762295;80;21223;-84
2021/06/23 02:40:35;;;;;;;5.05;2.58;;;;;;;40.34;43.90;161837.17;1718375;82;21374;-84
2021/06/23 02:43:09;;;;;;;6.62;2.10;;;;;;;40.36;43.84;161841.19;1765030;81;21664;-83
2021/06/23 02:45:42;;;;;;;3.08;2.15;;;;;;;40.36;43.85;161842.55;1765108;81;21253;-83
2021/06/23 02:48:16;;;;;;;4.60;2.27;;;;;;;40.47;43.72;161870.69;1768177;80;21168;-83
2021/06/23 02:51:15;;;;;;;4.53;2.20;;;;;;;40.53;43.61;161888.14;1725254;82;21438;-90
2021/06/23 02:53:50;;;;;;;4.03;2.08;;;;;;;40.51;43.60;161881.44;1708668;82;21329;-83
2021/06/23 02:56:23;;;;;;;4.08;2.10;;;;;;;40.49;43.59;161877.44;1744326;81;22607;-83
2021/06/23 02:58:56;;;;;;;3.55;1.92;;;;;;;40.48;43.59;161874.75;1728054;80;21186;-83
2021/06/23 03:01:29;;;;;;;3.65;2.02;;;;;;;40.48;43.59;161873.38;1711688;84;21236;-83
2021/06/23 03:04:03;;;;;;;6.53;2.00;;;;;;;40.47;43.59;161872.06;1768578;81;22497;-83
2021/06/23 03:06:38;;;;;;;5.42;2.17;;;;;;;40.46;43.58;161868.00;1736973;81;21326;-82
2021/06/23 03:09:11;;;;;;;2.50;2.10;;;;;;;40.44;43.57;161862.69;1740380;81;21287;-82
2021/06/23 03:11:49;;;;;;;5.87;2.17;;;;;;;40.48;43.48;161873.38;1737728;82;21350;-82
2021/06/23 03:14:25;;;;;;;4.20;2.05;;;;;;;40.42;43.52;161858.63;1738184;81;21338;-85
2021/06/23 03:16:58;;;;;;;8.15;2.40;;;;;;;40.41;43.58;161854.63;1767315;81;21375;-84
2021/06/23 03:19:31;;;;;;;5.53;1.85;;;;;;;40.38;43.62;161846.56;1782716;80;21205;-85
2021/06/23 03:22:08;;;;;;;4.53;2.33;;;;;;;40.39;43.66;161849.25;1770777;81;21361;-85
2021/06/23 03:24:41;;;;;;;4.70;2.40;;;;;;;40.42;43.60;161858.63;1736383;80;21328;-85
2021/06/23 03:27:14;;;;;;;4.17;2.70;;;;;;;40.43;43.59;161861.31;1740428;82;21226;-85
2021/06/23 03:29:47;;;;;;;3.85;1.77;;;;;;;40.46;43.50;161868.00;1752274;82;21244;-84
2021/06/23 03:32:20;;;;;;;4.37;2.33;;;;;;;40.43;43.59;161860.00;1739741;82;21758;-82
2021/06/23 03:34:53;;;;;;;3.08;1.87;;;;;;;40.43;43.59;161860.00;1739998;82;21331;-83
2021/06/23 03:37:26;;;;;;;3.52;2.10;;;;;;;40.60;43.31;161906.97;1770004;81;21166;-83
2021/06/23 03:39:58;;;;;;;3.70;1.82;;;;;;;40.43;43.54;161861.31;1755683;81;21363;-83
2021/06/23 03:42:31;;;;;;;5.70;1.80;;;;;;;40.45;43.62;161865.38;1742944;80;21303;-88
2021/06/23 03:45:04;;;;;;;4.42;1.95;;;;;;;40.47;43.60;161870.69;1735982;80;21872;-84
2021/06/23 03:47:36;;;;;;;4.30;1.90;;;;;;;40.41;43.70;161854.63;1729351;82;21541;-84
2021/06/23 03:50:11;;;;;;;3.40;1.95;;;;;;;40.44;43.68;161864.00;1729849;80;21255;-84
2021/06/23 03:52:45;;;;;;;4.65;2.20;;;;;;;40.53;43.58;161888.14;1726433;80;21200;-83
2021/06/23 03:55:25;;;;;;;3.65;2.00;;;;;;;40.54;43.54;161890.83;1726464;82;21353;-85
2021/06/23 03:57:57;;;;;;;4.72;2.00;;;;;;;40.59;43.47;161902.91;1729192;80;21332;-87
2021/06/23 04:00:32;;;;;;;6.10;2.12;;;;;;;40.58;43.53;161901.59;1726751;81;21884;-79
2021/06/23 04:03:09;;;;;;;2.92;2.27;;;;;;;40.54;43.60;161889.52;1737735;80;21242;-84
2021/06/23 04:05:43;;;;;;;3.87;2.17;;;;;;;40.44;43.81;161864.00;1727913;80;21243;-80
2021/06/23 04:08:17;;;;;;;3.67;2.30;;;;;;;40.42;43.79;161857.31;1726152;81;21255;-81
2021/06/23 04:10:50;;;;;;;3.98;2.27;;;;;;;40.42;43.79;161857.31;1723578;82;21345;-79
2021/06/23 04:13:22;;;;;;;3.70;2.47;;;;;;;40.62;43.69;161912.34;1735139;80;22196;-80
2021/06/23 04:15:55;;;;;;;6.67;2.50;;;;;;;40.59;43.78;161904.28;1728853;80;21396;-79
2021/06/23 04:18:28;;;;;;;6.75;2.12;;;;;;;40.64;43.74;161916.34;1721678;80;21270;-83
2021/06/23 04:21:01;;;;;;;9.43;2.67;;;;;;;40.62;43.81;161912.34;1734860;80;21277;-80
2021/06/23 04:23:35;;;;;;;7.70;2.17;;;;;;;40.55;43.99;161893.52;1720655;80;21742;-81
2021/06/23 04:26:08;;;;;;;11.33;2.40;;;;;;;40.57;44.00;161898.91;1725036;80;21230;-82
2021/06/23 04:28:41;;;;;;;3.58;2.35;;;;;;;40.56;44.08;161896.20;1726983;80;21369;-80
2021/06/23 04:31:14;;;;;;;3.37;2.30;;;;;;;40.60;44.05;161905.59;1736391;82;21337;-80
2021/06/23 04:33:47;;;;;;;4.22;2.35;;;;;;;40.67;43.94;161925.72;1722955;81;22507;-80
2021/06/23 04:36:19;;;;;;;5.22;2.40;;;;;;;40.75;43.81;161947.23;1722907;81;21500;-81
2021/06/23 04:38:53;;;;;;;4.83;2.30;;;;;;;40.54;44.06;161890.83;1722984;82;21955;-80
2021/06/23 04:41:27;;;;;;;5.17;2.35;;;;;;;40.52;44.12;161885.45;1725399;80;21349;-80
2021/06/23 04:44:00;;;;;;;6.80;2.30;;;;;;;40.60;44.01;161906.97;1733987;80;21251;-81
2021/06/23 04:46:33;;;;;;;3.95;2.40;;;;;;;40.62;43.97;161912.34;1729798;82;21332;-80
2021/06/23 04:49:09;;;;;;;4.15;2.33;;;;;;;40.63;43.96;161914.97;1728596;82;21290;-82
2021/06/23 04:51:47;;;;;;;5.17;2.55;;;;;;;40.63;44.01;161914.97;1730767;80;21182;-82
2021/06/23 04:54:19;;;;;;;8.38;2.52;;;;;;;40.70;43.95;161933.78;1727918;80;21329;-81
2021/06/23 04:56:55;;;;;;;4.10;2.15;;;;;;;40.82;43.84;161964.69;1741757;80;21262;-80
2021/06/23 04:59:29;;;;;;;4.42;2.10;;;;;;;40.91;43.67;161988.88;1726813;81;21758;-79
2021/06/23 05:02:01;;;;;;;5.10;2.20;;;;;;;40.89;43.72;161984.81;1720366;81;21178;-80
2021/06/23 05:04:37;;;;;;;5.58;1.95;;;;;;;40.91;43.69;161990.19;1718356;81;21326;-80
2021/06/23 05:07:11;;;;;;;3.65;2.12;;;;;;;40.93;43.69;161995.58;1721580;81;21584;-80
2021/06/23 05:09:46;;;;;;;6.42;1.98;;;;;;;40.90;43.74;161986.19;1721392;81;21928;-82
2021/06/23 05:12:22;;;;;;;3.15;2.10;;;;;;;40.88;43.73;161980.81;1720567;80;21436;-78
2021/06/23 05:14:55;;;;;;;5.15;2.20;;;;;;;40.97;43.61;162006.33;1712314;83;21408;-78
2021/06/23 05:17:28;;;;;;;5.05;2.12;;;;;;;40.94;43.63;161998.27;1736473;82;21191;-81
2021/06/23 05:20:01;;;;;;;5.83;2.72;;;;;;;40.89;43.71;161983.50;1733533;82;21919;-79
2021/06/23 05:22:33;;;;;;;3.90;2.20;;;;;;;40.96;43.68;162003.64;1731135;82;21433;-79
2021/06/23 05:25:07;;;;;;;5.25;2.08;;;;;;;41.04;43.49;162025.09;1707851;82;21184;-79
2021/06/23 05:27:39;;;;;;;3.85;2.10;;;;;;;41.00;43.57;162015.72;1705703;84;21208;-79
2021/06/23 05:30:12;;;;;;;5.50;2.30;;;;;;;41.06;43.54;162030.48;1705961;84;21188;-79
2021/06/23 05:32:44;;;;;;;5.65;2.83;;;;;;;41.20;43.30;162069.44;1723730;82;21164;-79
2021/06/23 05:35:16;;;;;;;3.55;2.20;;;;;;;41.27;43.15;162086.89;1722453;82;21176;-78
2021/06/23 05:37:49;;;;;;;4.95;2.60;;;;;;;41.24;43.23;162080.20;1743256;82;21204;-79
2021/06/23 05:40:21;;;;;;;4.33;2.42;;;;;;;41.21;43.22;162072.13;1743259;82;21198;-79
2021/06/23 05:42:55;;;;;;;2.87;2.33;;;;;;;41.23;43.26;162077.50;1743261;82;21202;-79
2021/06/23 05:45:27;;;;;;;5.75;2.05;;;;;;;41.24;43.26;162080.20;1743482;82;21250;-78
2021/06/23 05:47:59;;;;;;;2.95;2.08;;;;;;;41.37;43.25;162115.11;1743469;82;21197;-79
2021/06/23 05:50:32;;;;;;;4.40;2.70;;;;;;;41.46;43.14;162137.89;1743234;82;21250;-78
2021/06/23 05:53:04;;;;;;;3.98;2.22;;;;;;;41.42;43.21;162127.19;1743305;82;21183;-79
2021/06/23 05:55:39;;;;;;;4.12;2.20;;;;;;;41.51;43.05;162152.66;1743360;82;21261;-79
2021/06/23 05:58:11;;;;;;;2.72;2.22;;;;;;;41.55;43.08;162162.09;1725906;82;21347;-79
2021/06/23 06:00:43;;;;;;;5.47;2.27;;;;;;;41.66;42.99;162193.00;1712817;82;21221;-78
2021/06/23 06:03:15;;;;;;;4.85;2.17;;;;;;;41.80;42.76;162229.23;1711542;84;21232;-80
2021/06/23 06:05:48;;;;;;;3.20;2.40;;;;;;;41.68;42.91;162198.37;1712411;82;21363;-78
2021/06/23 06:08:20;;;;;;;5.95;2.67;;;;;;;41.75;42.80;162215.84;1712153;82;21184;-78
2021/06/23 06:10:54;;;;;;;4.22;2.10;;;;;;;41.82;42.70;162236.00;1719509;82;21172;-79
2021/06/23 06:13:26;;;;;;;3.27;2.20;;;;;;;41.87;42.55;162248.06;1739336;82;21843;-78
2021/06/23 06:15:58;;;;;;;3.22;2.20;;;;;;;41.84;42.67;162241.38;1712670;82;21315;-79
2021/06/23 06:18:33;;;;;;;3.65;2.05;;;;;;;41.98;42.44;162278.98;1711949;82;21181;-78
2021/06/23 06:21:05;;;;;;;6.45;2.27;;;;;;;41.92;42.51;162262.84;1711706;82;21178;-79
2021/06/23 06:23:38;;;;;;;2.77;2.22;;;;;;;41.78;42.74;162225.23;1711614;84;21292;-79
2021/06/23 06:26:10;;;;;;;7.97;2.27;;;;;;;41.84;42.78;162240.00;1711710;84;21720;-79
2021/06/23 06:28:43;;;;;;;2.35;2.02;;;;;;;41.88;42.79;162253.45;1711684;84;21232;-78
2021/06/23 06:31:16;;;;;;;3.17;2.00;;;;;;;41.94;42.76;162268.22;1711779;84;21701;-79
2021/06/23 06:33:49;;;;;;;3.00;1.90;;;;;;;41.98;42.81;162278.98;1711740;84;21166;-80
2021/06/23 06:36:21;;;;;;;3.80;2.17;;;;;;;41.98;42.90;162280.36;1711747;84;21162;-79
2021/06/23 06:38:54;;;;;;;3.35;2.47;;;;;;;42.00;42.92;162285.75;1711625;84;21197;-79
2021/06/23 06:41:26;;;;;;;2.15;1.95;;;;;;;42.07;42.89;162303.20;1711728;84;21210;-79
2021/06/23 06:43:59;;;;;;;4.05;2.72;;;;;;;42.15;42.79;162326.00;1711647;84;21196;-79
2021/06/23 06:46:31;;;;;;;3.72;1.80;;;;;;;42.18;42.82;162334.06;1716780;81;21227;-79
2021/06/23 06:49:05;;;;;;;3.85;2.33;;;;;;;42.30;42.73;162364.98;1741221;82;21192;-79
2021/06/23 06:51:38;;;;;;;2.80;2.08;;;;;;;42.27;42.82;162358.23;1711675;84;21188;-79
2021/06/23 06:54:10;;;;;;;2.62;1.95;;;;;;;42.31;42.83;162369.00;1711583;84;21228;-79
2021/06/23 06:56:42;;;;;;;3.65;2.15;;;;;;;42.27;42.97;162358.23;1711587;84;21265;-78
2021/06/23 06:59:15;;;;;;;2.85;2.12;;;;;;;42.28;43.03;162359.61;1711821;84;21235;-79
2021/06/23 07:01:48;;;;;;;3.72;2.22;;;;;;;42.36;43.01;162381.13;1714586;83;21195;-79
2021/06/23 07:04:21;;;;;;;3.65;2.25;;;;;;;42.45;43.01;162405.30;1719503;83;21421;-78
2021/06/23 07:06:54;;;;;;;2.90;2.12;;;;;;;42.53;42.91;162426.83;1719290;83;21341;-79
2021/06/23 07:09:26;;;;;;;5.78;2.10;;;;;;;42.43;43.08;162401.28;1719238;83;21863;-78
2021/06/23 07:11:58;;;;;;;3.62;2.15;;;;;;;42.47;43.16;162410.69;1719360;83;21333;-79
2021/06/23 07:14:30;;;;;;;3.55;2.33;;;;;;;42.50;43.21;162420.08;1719566;83;21338;-79
2021/06/23 07:17:03;;;;;;;2.25;2.05;;;;;;;42.61;43.17;162448.31;1721288;82;21299;-79
2021/06/23 07:19:36;;;;;;;3.08;2.25;;;;;;;42.61;43.18;162449.63;1736636;82;21356;-78
2021/06/23 07:22:09;;;;;;;2.92;2.22;;;;;;;42.67;43.16;162464.41;1724580;82;21307;-78
2021/06/23 07:24:41;;;;;;;3.83;2.47;;;;;;;42.73;43.17;162480.56;1719359;82;21197;-79
2021/06/23 07:27:13;;;;;;;5.05;2.35;;;;;;;42.80;43.12;162500.77;1719577;83;21323;-79
2021/06/23 07:29:46;;;;;;;3.72;2.27;;;;;;;42.75;43.24;162486.00;1719399;83;21220;-79
2021/06/23 07:32:24;;;;;;;3.20;2.17;;;;;;;42.75;43.33;162487.31;1719322;83;21311;-79
2021/06/23 07:37:25;;;;;;;3.05;2.15;;;;;;;42.82;43.36;162506.16;1719453;82;21315;-79
2021/06/23 07:39:57;;;;;;;4.75;2.08;;;;;;;43.06;43.10;162571.97;1719282;83;21189;-79
2021/06/23 07:42:30;;;;;;;3.30;2.30;;;;;;;43.16;42.94;162597.58;1719554;83;21197;-79
2021/06/23 07:45:03;;;;;;;3.20;2.10;;;;;;;43.30;42.82;162635.17;1719269;83;21382;-79
2021/06/23 07:47:38;;;;;;;3.62;2.10;;;;;;;43.42;42.73;162668.80;1719334;83;21331;-79
2021/06/23 07:50:13;;;;;;;8.23;2.42;;;;;;;43.32;42.90;162641.92;1719088;83;21355;-79
2021/06/23 07:52:56;;;;;;;3.25;2.25;;;;;;;43.25;43.08;162623.08;1719389;83;21911;-79
2021/06/23 08:09:35;;;;;;;6.42;2.10;;;;;;;43.72;42.94;162748.17;1713839;84;21190;-79
2021/06/23 08:12:23;;;;;;;3.12;2.00;;;;;;;43.77;42.86;162761.58;1713708;84;21371;-79
2021/06/23 08:14:41;;;;;;;3.55;2.08;;;;;;;43.87;42.79;162791.16;1712433;83;21343;-79
2021/06/23 08:17:13;;;;;;;3.15;2.10;;;;;;;43.88;42.83;162792.53;1713685;83;21319;-79
2021/06/23 08:19:46;;;;;;;6.03;2.58;;;;;;;43.87;42.96;162789.83;1713763;84;21751;-79
2021/06/23 08:22:19;;;;;;;2.62;2.00;;;;;;;43.88;43.11;162793.91;1715583;82;21331;-79
2021/06/23 08:24:51;;;;;;;3.12;2.33;;;;;;;43.95;43.08;162811.39;1713952;82;21245;-80
2021/06/23 08:27:23;;;;;;;4.42;2.27;;;;;;;44.00;43.03;162826.17;1713941;84;21811;-79
2021/06/23 08:29:55;;;;;;;3.35;2.27;;;;;;;44.11;42.94;162855.75;1713650;84;21359;-79
2021/06/23 08:32:28;;;;;;;4.72;2.62;;;;;;;44.15;42.92;162865.20;1713624;84;21938;-79
2021/06/23 08:35:00;;;;;;;2.83;2.15;;;;;;;44.27;42.80;162898.86;1713463;84;21220;-79
2021/06/23 08:37:33;;;;;;;3.75;2.33;;;;;;;44.22;42.92;162884.02;1713724;84;21336;-79
2021/06/23 08:40:07;;;;;;;4.58;2.10;;;;;;;44.26;42.99;162896.16;1713831;84;21308;-79
2021/06/23 08:42:40;;;;;;;4.08;2.42;;;;;;;44.34;43.00;162917.66;1713918;84;22489;-79
2021/06/23 08:45:13;;;;;;;4.85;2.60;;;;;;;44.37;43.05;162924.44;1713662;82;21431;-79
2021/06/23 08:47:47;;;;;;;4.05;2.45;;;;;;;44.44;43.11;162943.23;1713714;84;21359;-79
2021/06/23 08:50:24;;;;;;;2.33;2.00;;;;;;;44.52;43.13;162964.73;1715878;82;21421;-79
2021/06/23 08:52:56;;;;;;;3.98;2.60;;;;;;;44.61;43.15;162988.98;1713528;84;21350;-80
2021/06/23 08:55:28;;;;;;;6.92;2.50;;;;;;;44.60;43.38;162987.61;1714014;82;21851;-79
2021/06/23 08:58:01;;;;;;;3.75;2.40;;;;;;;44.56;43.60;162976.89;1713777;84;21173;-79
2021/06/23 09:00:34;;;;;;;6.45;2.30;;;;;;;44.51;43.77;162962.03;1713610;84;21328;-79
2021/06/23 09:03:07;;;;;;;6.22;2.27;;;;;;;44.49;43.79;162956.70;1713480;84;21383;-79
2021/06/23 09:05:59;;;;;;;6.08;2.33;;;;;;;44.48;43.85;162955.33;1713515;84;21315;-79
2021/06/23 09:08:34;;;;;;;7.03;2.50;;;;;;;44.56;43.86;162975.52;1713562;84;21756;-79
2021/06/23 09:11:24;;;;;;;4.45;2.20;;;;;;;44.70;43.50;163014.56;1729673;82;21235;-79
2021/06/23 09:13:54;;;;;;;5.80;2.42;;;;;;;44.82;43.45;163046.84;1717306;82;21173;-79
2021/06/23 09:16:27;;;;;;;3.17;2.30;;;;;;;44.85;43.42;163056.25;1713639;82;21173;-80
2021/06/23 09:18:59;;;;;;;3.95;2.40;;;;;;;44.96;43.31;163085.91;1713591;82;21198;-80
2021/06/23 09:21:33;;;;;;;6.12;2.92;;;;;;;44.95;43.40;163081.83;1713699;84;21320;-79
2021/06/23 09:24:06;;;;;;;3.33;2.22;;;;;;;44.96;43.41;163085.91;1694011;84;21201;-79
2021/06/23 09:26:39;;;;;;;6.03;2.60;;;;;;;44.96;43.54;163085.91;1713571;84;21656;-80
2021/06/23 09:29:17;;;;;;;3.83;2.60;;;;;;;45.09;43.48;163120.89;1713531;84;21237;-79
2021/06/23 09:32:04;;;;;;;2.60;2.40;;;;;;;45.15;43.51;163135.69;1713867;84;21229;-79
2021/06/23 09:34:48;;;;;;;3.85;2.45;;;;;;;45.18;43.56;163143.78;1713664;84;21225;-80
2021/06/23 09:37:30;;;;;;;5.65;2.72;;;;;;;45.22;43.67;163155.88;1713698;83;21162;-79
2021/06/23 09:40:21;;;;;;;4.80;2.37;;;;;;;45.30;43.59;163176.06;1717360;82;21423;-79
2021/06/23 09:43:01;;;;;;;3.35;2.25;;;;;;;45.40;43.50;163203.03;1741202;82;21727;-80
2021/06/23 09:45:35;;;;;;;2.77;2.20;;;;;;;45.63;43.08;163264.94;1713023;82;21237;-79
2021/06/23 09:48:09;;;;;;;4.00;2.50;;;;;;;45.46;43.53;163220.53;1713834;84;21188;-79
2021/06/23 09:50:48;;;;;;;;;;;;;;;45.42;43.69;163209.78;1716162;84;21376;-79
2021/06/23 09:53:23;;;;;;;2.60;2.20;;;;;;;45.50;43.80;163231.31;1713690;84;20623;-79
2021/06/23 09:55:55;;;;;;;4.28;2.40;;;;;;;45.56;43.73;163247.44;1713646;84;21189;-79
2021/06/23 09:58:29;;;;;;;5.50;2.50;;;;;;;45.36;43.86;163192.25;1713706;84;21792;-79
2021/06/23 10:01:13;;;;;;;3.77;2.27;;;;;;;45.43;43.98;163212.44;1672547;84;21359;-79
2021/06/23 10:04:10;;;;;;;2.37;2.17;;;;;;;45.64;43.70;163269.00;1712175;84;21335;-79
2021/06/23 10:06:44;;;;;;;4.72;2.35;;;;;;;45.67;43.63;163275.72;1713403;83;21193;-79
2021/06/23 10:09:29;;;;;;;2.83;2.10;;;;;;;45.74;43.61;163295.97;1713577;84;21316;-79
2021/06/23 10:12:09;;;;;;;3.80;2.20;;;;;;;45.88;43.35;163334.98;1715637;82;21278;-79
2021/06/23 10:14:45;;;;;;;3.58;2.27;;;;;;;45.95;43.12;163352.48;1713819;84;21204;-79
2021/06/23 10:17:17;;;;;;;5.05;2.40;;;;;;;45.70;43.35;163283.80;1713822;83;21878;-80
2021/06/23 10:19:50;;;;;;;4.60;2.47;;;;;;;45.70;43.33;163285.13;1713657;84;21390;-79
2021/06/23 10:22:23;;;;;;;5.42;2.42;;;;;;;46.04;42.78;163376.70;1713642;84;21350;-79
2021/06/23 10:24:57;;;;;;;2.52;2.10;;;;;;;45.97;42.70;163357.87;1713814;83;21350;-80
2021/06/23 10:27:29;;;;;;;5.60;2.65;;;;;;;46.04;42.59;163378.08;1713563;82;21267;-79
2021/06/23 10:30:02;;;;;;;2.95;2.02;;;;;;;45.99;42.55;163364.59;1713950;84;21199;-79
2021/06/23 10:32:34;;;;;;;6.55;3.52;;;;;;;46.03;42.41;163375.38;1714443;82;21343;-80
2021/06/23 10:35:09;;;;;;;5.95;2.30;;;;;;;46.13;42.20;163402.34;1715286;82;21315;-80
2021/06/23 10:37:41;;;;;;;4.00;2.20;;;;;;;46.25;42.03;163434.66;1743392;82;21742;-80
2021/06/23 10:40:15;;;;;;;3.02;2.27;;;;;;;46.29;41.98;163445.45;1732439;82;21771;-79
2021/06/23 10:42:48;;;;;;;5.55;2.10;;;;;;;46.38;41.91;163468.30;1713956;82;21157;-79
2021/06/23 10:45:20;;;;;;;9.03;2.37;;;;;;;46.51;41.82;163503.37;1717647;82;21369;-80
2021/06/23 10:47:52;;;;;;;4.95;1.95;;;;;;;46.62;41.65;163534.36;1714231;82;21248;-79
2021/06/23 10:50:35;;;;;;;4.60;2.30;;;;;;;46.49;41.83;163499.34;1678849;82;21314;-79
2021/06/23 10:53:35;;;;;;;4.15;2.35;;;;;;;46.52;41.82;163507.44;1743486;82;21693;-80
2021/06/23 10:56:09;;;;;;;5.58;2.35;;;;;;;46.56;41.77;163516.86;1743243;82;21211;-79
2021/06/23 10:58:43;;;;;;;5.35;2.45;;;;;;;46.56;41.70;163518.19;1741136;82;21191;-79
2021/06/23 11:01:15;;;;;;;5.42;2.40;;;;;;;46.59;41.65;163524.95;1743410;82;21175;-79
2021/06/23 11:04:05;;;;;;;5.83;2.98;;;;;;;46.86;41.22;163599.06;1743308;82;21529;-79
2021/06/23 11:06:44;;;;;;;4.22;2.02;;;;;;;46.95;41.10;163623.28;1725522;82;21257;-80
2021/06/23 11:09:29;;;;;;;6.45;2.60;;;;;;;46.96;41.09;163626.00;1705777;84;21261;-80
2021/06/23 11:12:01;;;;;;;6.67;2.47;;;;;;;46.93;41.15;163617.89;1705832;84;21238;-79
2021/06/23 11:14:35;;;;;;;4.03;2.30;;;;;;;47.04;41.00;163648.91;1705664;84;21666;-80
2021/06/23 11:17:30;;;;;;;10.88;2.80;;;;;;;47.21;40.78;163693.41;1723591;82;21388;-80
2021/06/23 11:20:03;;;;;;;10.75;3.10;;;;;;;47.41;40.45;163748.59;1694097;84;21383;-80
2021/06/23 11:22:36;;;;;;;5.45;2.50;;;;;;;47.55;40.22;163785.06;1677285;84;21336;-79
2021/06/23 11:25:27;;;;;;;8.95;2.50;;;;;;;47.55;40.19;163786.38;1677208;84;21214;-80
2021/06/23 11:28:16;;;;;;;6.78;2.85;;;;;;;47.61;40.02;163801.20;1677188;84;21332;-80
2021/06/23 11:31:06;;;;;;;9.75;2.95;;;;;;;47.65;39.88;163812.00;1677270;84;21198;-79
2021/06/23 11:33:44;;;;;;;6.40;2.37;;;;;;;47.74;39.68;163837.61;1677234;85;21852;-79
2021/06/23 11:36:21;;;;;;;9.53;2.42;;;;;;;47.78;39.62;163849.73;1658308;85;21879;-79
2021/06/23 11:38:55;;;;;;;8.03;2.37;;;;;;;47.78;39.66;163848.36;1677507;85;21336;-80
2021/06/23 11:41:27;;;;;;;6.17;2.33;;;;;;;47.87;39.58;163874.03;1677386;85;21384;-79
2021/06/23 11:44:00;;;;;;;8.55;2.65;;;;;;;47.99;39.51;163905.00;1700995;84;21234;-79
2021/06/23 11:46:32;;;;;;;8.63;2.67;;;;;;;47.97;39.59;163899.64;1682553;84;21214;-79
2021/06/23 11:49:05;;;;;;;5.55;2.50;;;;;;;47.75;39.89;163838.94;1705301;84;21182;-79
2021/06/23 11:51:37;;;;;;;14.35;3.50;;;;;;;47.75;39.91;163840.27;1690715;84;21254;-79
2021/06/23 11:54:10;;;;;;;12.60;3.00;;;;;;;47.80;39.87;163855.08;1677490;84;21187;-79
2021/06/23 11:56:42;;;;;;;11.68;3.35;;;;;;;47.98;39.60;163902.30;1677305;85;21364;-79
2021/06/23 11:59:15;;;;;;;8.13;2.85;;;;;;;48.04;39.52;163918.50;1677381;84;21820;-79
2021/06/23 12:01:47;;;;;;;13.70;3.22;;;;;;;47.93;39.69;163890.17;1677285;85;21348;-79
2021/06/23 12:04:22;;;;;;;5.20;2.70;;;;;;;48.01;39.69;163911.77;1677272;85;21452;-79
2021/06/23 12:06:55;;;;;;;7.67;3.25;;;;;;;48.07;39.71;163927.92;1682015;83;21217;-80
2021/06/23 12:09:27;;;;;;;10.90;3.87;;;;;;;48.12;39.71;163941.42;1713624;84;21351;-80
2021/06/23 12:12:00;;;;;;;6.83;2.60;;;;;;;48.28;39.59;163984.56;1713763;84;21213;-80
2021/06/23 12:14:32;;;;;;;8.43;3.15;;;;;;;48.26;39.58;163979.22;1713716;84;21364;-80
2021/06/23 12:17:05;;;;;;;14.38;3.02;;;;;;;48.34;39.40;163999.39;1713678;84;21359;-80